sensor_id;sensor_type;location;lat;lon;timestamp;P1;durP1;ratioP1;P2;durP2;ratioP2
16478;SDS011;8350;52.316;10.530;2023-06-14T00:00:24;3.75;;;2.83;;
16478;SDS011;8350;52.316;10.530;2023-06-14T00:02:51;3.42;;;2.70;;
16478;SDS011;8350;52.316;10.530;2023-06-14T00:05:20;4.50;;;3.20;;
16478;SDS011;8350;52.316;10.530;2023-06-14T00:07:49;5.38;;;2.60;;
16478;SDS011;8350;52.316;10.530;2023-06-14T00:10:18;2.78;;;2.53;;
16478;SDS011;8350;52.316;10.530;2023-06-14T00:12:47;2.85;;;2.65;;
16478;SDS011;8350;52.316;10.530;2023-06-14T00:15:14;3.20;;;2.50;;
16478;SDS011;8350;52.316;10.530;2023-06-14T00:17:41;2.88;;;2.67;;
16478;SDS011;8350;52.316;10.530;2023-06-14T00:20:12;3.03;;;2.72;;
16478;SDS011;8350;52.316;10.530;2023-06-14T00:22:39;4.28;;;2.55;;
16478;SDS011;8350;52.316;10.530;2023-06-14T00:25:11;3.47;;;3.00;;
16478;SDS011;8350;52.316;10.530;2023-06-14T00:27:37;3.28;;;2.83;;
16478;SDS011;8350;52.316;10.530;2023-06-14T00:30:07;3.15;;;2.85;;
16478;SDS011;8350;52.316;10.530;2023-06-14T00:32:34;3.35;;;2.03;;
16478;SDS011;8350;52.316;10.530;2023-06-14T00:35:03;2.67;;;2.47;;
16478;SDS011;8350;52.316;10.530;2023-06-14T00:37:30;4.55;;;2.78;;
16478;SDS011;8350;52.316;10.530;2023-06-14T00:39:57;3.55;;;2.60;;
16478;SDS011;8350;52.316;10.530;2023-06-14T00:42:26;2.55;;;2.25;;
16478;SDS011;8350;52.316;10.530;2023-06-14T00:44:56;3.63;;;2.80;;
16478;SDS011;8350;52.316;10.530;2023-06-14T00:47:26;2.45;;;2.30;;
16478;SDS011;8350;52.316;10.530;2023-06-14T00:49:53;4.50;;;2.38;;
16478;SDS011;8350;52.316;10.530;2023-06-14T00:52:22;3.10;;;2.30;;
16478;SDS011;8350;52.316;10.530;2023-06-14T00:54:50;2.40;;;2.20;;
16478;SDS011;8350;52.316;10.530;2023-06-14T00:57:17;3.40;;;2.70;;
16478;SDS011;8350;52.316;10.530;2023-06-14T00:59:48;3.22;;;2.63;;
16478;SDS011;8350;52.316;10.530;2023-06-14T01:02:15;4.97;;;2.80;;
16478;SDS011;8350;52.316;10.530;2023-06-14T01:04:45;3.92;;;2.85;;
16478;SDS011;8350;52.316;10.530;2023-06-14T01:07:15;3.55;;;3.25;;
16478;SDS011;8350;52.316;10.530;2023-06-14T01:09:52;3.25;;;2.95;;
16478;SDS011;8350;52.316;10.530;2023-06-14T01:12:31;4.07;;;2.85;;
16478;SDS011;8350;52.316;10.530;2023-06-14T01:15:07;3.20;;;2.70;;
16478;SDS011;8350;52.316;10.530;2023-06-14T01:17:34;2.60;;;2.40;;
16478;SDS011;8350;52.316;10.530;2023-06-14T01:20:06;2.88;;;2.50;;
16478;SDS011;8350;52.316;10.530;2023-06-14T01:22:37;3.97;;;2.70;;
16478;SDS011;8350;52.316;10.530;2023-06-14T01:25:12;4.43;;;2.53;;
16478;SDS011;8350;52.316;10.530;2023-06-14T01:27:39;4.25;;;3.15;;
16478;SDS011;8350;52.316;10.530;2023-06-14T01:30:06;2.85;;;2.65;;
16478;SDS011;8350;52.316;10.530;2023-06-14T01:32:35;4.22;;;2.88;;
16478;SDS011;8350;52.316;10.530;2023-06-14T01:35:02;4.43;;;2.47;;
16478;SDS011;8350;52.316;10.530;2023-06-14T01:37:30;3.70;;;2.35;;
16478;SDS011;8350;52.316;10.530;2023-06-14T01:39:59;2.55;;;2.35;;
16478;SDS011;8350;52.316;10.530;2023-06-14T01:42:26;4.00;;;2.70;;
16478;SDS011;8350;52.316;10.530;2023-06-14T01:44:53;5.88;;;3.00;;
16478;SDS011;8350;52.316;10.530;2023-06-14T01:47:22;2.55;;;2.35;;
16478;SDS011;8350;52.316;10.530;2023-06-14T01:49:49;2.80;;;2.42;;
16478;SDS011;8350;52.316;10.530;2023-06-14T01:52:16;3.88;;;2.97;;
16478;SDS011;8350;52.316;10.530;2023-06-14T01:54:44;3.53;;;2.58;;
16478;SDS011;8350;52.316;10.530;2023-06-14T01:57:14;3.03;;;2.75;;
16478;SDS011;8350;52.316;10.530;2023-06-14T01:59:41;2.70;;;2.50;;
16478;SDS011;8350;52.316;10.530;2023-06-14T02:02:08;2.97;;;2.65;;
16478;SDS011;8350;52.316;10.530;2023-06-14T02:04:35;3.08;;;2.88;;
16478;SDS011;8350;52.316;10.530;2023-06-14T02:07:05;2.60;;;2.40;;
16478;SDS011;8350;52.316;10.530;2023-06-14T02:09:33;2.97;;;2.65;;
16478;SDS011;8350;52.316;10.530;2023-06-14T02:12:00;2.85;;;2.60;;
16478;SDS011;8350;52.316;10.530;2023-06-14T02:14:28;2.65;;;2.42;;
16478;SDS011;8350;52.316;10.530;2023-06-14T02:16:55;2.65;;;2.45;;
16478;SDS011;8350;52.316;10.530;2023-06-14T02:19:22;2.83;;;2.10;;
16478;SDS011;8350;52.316;10.530;2023-06-14T02:21:49;2.90;;;2.53;;
16478;SDS011;8350;52.316;10.530;2023-06-14T02:24:16;2.97;;;2.70;;
16478;SDS011;8350;52.316;10.530;2023-06-14T02:26:43;4.47;;;2.20;;
16478;SDS011;8350;52.316;10.530;2023-06-14T02:29:10;2.53;;;2.33;;
16478;SDS011;8350;52.316;10.530;2023-06-14T02:31:41;4.28;;;2.47;;
16478;SDS011;8350;52.316;10.530;2023-06-14T02:34:07;3.85;;;2.80;;
16478;SDS011;8350;52.316;10.530;2023-06-14T02:36:34;4.38;;;2.30;;
16478;SDS011;8350;52.316;10.530;2023-06-14T02:39:06;3.50;;;2.72;;
16478;SDS011;8350;52.316;10.530;2023-06-14T02:41:34;4.05;;;2.55;;
16478;SDS011;8350;52.316;10.530;2023-06-14T02:44:01;3.28;;;2.67;;
16478;SDS011;8350;52.316;10.530;2023-06-14T02:46:28;4.53;;;2.40;;
16478;SDS011;8350;52.316;10.530;2023-06-14T02:48:57;3.38;;;2.60;;
16478;SDS011;8350;52.316;10.530;2023-06-14T02:51:24;2.53;;;2.33;;
16478;SDS011;8350;52.316;10.530;2023-06-14T02:53:51;2.88;;;2.22;;
16478;SDS011;8350;52.316;10.530;2023-06-14T02:56:17;3.33;;;2.22;;
16478;SDS011;8350;52.316;10.530;2023-06-14T02:58:44;2.72;;;2.30;;
16478;SDS011;8350;52.316;10.530;2023-06-14T03:01:13;2.90;;;2.42;;
16478;SDS011;8350;52.316;10.530;2023-06-14T03:03:40;3.40;;;2.20;;
16478;SDS011;8350;52.316;10.530;2023-06-14T03:06:08;2.85;;;2.65;;
16478;SDS011;8350;52.316;10.530;2023-06-14T03:08:38;3.17;;;2.67;;
16478;SDS011;8350;52.316;10.530;2023-06-14T03:11:06;3.50;;;2.50;;
16478;SDS011;8350;52.316;10.530;2023-06-14T03:13:34;3.40;;;2.70;;
16478;SDS011;8350;52.316;10.530;2023-06-14T03:16:01;3.33;;;2.92;;
16478;SDS011;8350;52.316;10.530;2023-06-14T03:18:29;2.80;;;2.60;;
16478;SDS011;8350;52.316;10.530;2023-06-14T03:21:00;2.70;;;2.50;;
16478;SDS011;8350;52.316;10.530;2023-06-14T03:23:29;3.97;;;3.20;;
16478;SDS011;8350;52.316;10.530;2023-06-14T03:25:57;2.78;;;2.40;;
16478;SDS011;8350;52.316;10.530;2023-06-14T03:28:24;3.75;;;2.70;;
16478;SDS011;8350;52.316;10.530;2023-06-14T03:30:51;6.35;;;2.97;;
16478;SDS011;8350;52.316;10.530;2023-06-14T03:33:17;2.67;;;2.47;;
16478;SDS011;8350;52.316;10.530;2023-06-14T03:35:46;3.25;;;2.60;;
16478;SDS011;8350;52.316;10.530;2023-06-14T03:38:13;3.03;;;2.22;;
16478;SDS011;8350;52.316;10.530;2023-06-14T03:40:41;3.03;;;2.47;;
16478;SDS011;8350;52.316;10.530;2023-06-14T03:43:08;4.10;;;2.85;;
16478;SDS011;8350;52.316;10.530;2023-06-14T03:45:36;4.35;;;3.10;;
16478;SDS011;8350;52.316;10.530;2023-06-14T03:48:03;2.97;;;2.75;;
16478;SDS011;8350;52.316;10.530;2023-06-14T03:50:31;3.33;;;2.75;;
16478;SDS011;8350;52.316;10.530;2023-06-14T03:52:58;4.22;;;2.88;;
16478;SDS011;8350;52.316;10.530;2023-06-14T03:55:28;3.10;;;2.35;;
16478;SDS011;8350;52.316;10.530;2023-06-14T03:57:57;2.83;;;2.63;;
16478;SDS011;8350;52.316;10.530;2023-06-14T04:00:24;3.33;;;2.50;;
16478;SDS011;8350;52.316;10.530;2023-06-14T04:02:51;4.78;;;2.30;;
16478;SDS011;8350;52.316;10.530;2023-06-14T04:05:19;2.75;;;2.50;;
16478;SDS011;8350;52.316;10.530;2023-06-14T04:07:49;3.05;;;2.28;;
16478;SDS011;8350;52.316;10.530;2023-06-14T04:10:20;3.78;;;2.55;;
16478;SDS011;8350;52.316;10.530;2023-06-14T04:12:49;3.08;;;2.35;;
16478;SDS011;8350;52.316;10.530;2023-06-14T04:15:18;5.80;;;2.47;;
16478;SDS011;8350;52.316;10.530;2023-06-14T04:17:46;2.55;;;2.20;;
16478;SDS011;8350;52.316;10.530;2023-06-14T04:20:13;2.70;;;2.50;;
16478;SDS011;8350;52.316;10.530;2023-06-14T04:22:39;3.40;;;2.75;;
16478;SDS011;8350;52.316;10.530;2023-06-14T04:25:08;3.05;;;2.28;;
16478;SDS011;8350;52.316;10.530;2023-06-14T04:27:35;2.63;;;2.42;;
16478;SDS011;8350;52.316;10.530;2023-06-14T04:30:02;2.83;;;2.25;;
16478;SDS011;8350;52.316;10.530;2023-06-14T04:32:31;2.65;;;2.45;;
16478;SDS011;8350;52.316;10.530;2023-06-14T04:35:04;2.83;;;2.47;;
16478;SDS011;8350;52.316;10.530;2023-06-14T04:37:31;2.60;;;2.40;;
16478;SDS011;8350;52.316;10.530;2023-06-14T04:39:59;2.50;;;2.30;;
16478;SDS011;8350;52.316;10.530;2023-06-14T04:42:29;4.00;;;2.53;;
16478;SDS011;8350;52.316;10.530;2023-06-14T04:44:57;3.63;;;2.30;;
16478;SDS011;8350;52.316;10.530;2023-06-14T04:47:24;2.97;;;2.40;;
16478;SDS011;8350;52.316;10.530;2023-06-14T04:49:56;2.97;;;2.13;;
16478;SDS011;8350;52.316;10.530;2023-06-14T04:52:25;4.97;;;2.70;;
16478;SDS011;8350;52.316;10.530;2023-06-14T04:54:54;2.55;;;2.35;;
16478;SDS011;8350;52.316;10.530;2023-06-14T04:57:21;4.05;;;2.15;;
16478;SDS011;8350;52.316;10.530;2023-06-14T04:59:50;2.40;;;2.20;;
16478;SDS011;8350;52.316;10.530;2023-06-14T05:02:20;2.85;;;2.60;;
16478;SDS011;8350;52.316;10.530;2023-06-14T05:04:48;2.85;;;2.65;;
16478;SDS011;8350;52.316;10.530;2023-06-14T05:07:17;3.15;;;2.33;;
16478;SDS011;8350;52.316;10.530;2023-06-14T05:09:45;2.58;;;2.35;;
16478;SDS011;8350;52.316;10.530;2023-06-14T05:12:12;4.45;;;2.45;;
16478;SDS011;8350;52.316;10.530;2023-06-14T05:14:39;2.78;;;2.40;;
16478;SDS011;8350;52.316;10.530;2023-06-14T05:17:06;2.35;;;2.15;;
16478;SDS011;8350;52.316;10.530;2023-06-14T05:19:34;3.63;;;2.28;;
16478;SDS011;8350;52.316;10.530;2023-06-14T05:22:02;2.65;;;2.30;;
16478;SDS011;8350;52.316;10.530;2023-06-14T05:24:31;3.40;;;2.38;;
16478;SDS011;8350;52.316;10.530;2023-06-14T05:26:58;2.28;;;2.08;;
16478;SDS011;8350;52.316;10.530;2023-06-14T05:29:25;2.53;;;2.33;;
16478;SDS011;8350;52.316;10.530;2023-06-14T05:31:52;3.17;;;2.53;;
16478;SDS011;8350;52.316;10.530;2023-06-14T05:34:19;2.85;;;2.22;;
16478;SDS011;8350;52.316;10.530;2023-06-14T05:36:46;3.05;;;2.75;;
16478;SDS011;8350;52.316;10.530;2023-06-14T05:39:13;2.50;;;2.30;;
16478;SDS011;8350;52.316;10.530;2023-06-14T05:41:41;3.00;;;2.65;;
16478;SDS011;8350;52.316;10.530;2023-06-14T05:44:08;4.97;;;2.42;;
16478;SDS011;8350;52.316;10.530;2023-06-14T05:46:35;2.75;;;2.50;;
16478;SDS011;8350;52.316;10.530;2023-06-14T05:49:02;3.50;;;3.20;;
16478;SDS011;8350;52.316;10.530;2023-06-14T05:51:28;3.22;;;2.50;;
16478;SDS011;8350;52.316;10.530;2023-06-14T05:53:57;3.85;;;2.80;;
16478;SDS011;8350;52.316;10.530;2023-06-14T05:56:24;3.15;;;2.83;;
16478;SDS011;8350;52.316;10.530;2023-06-14T05:58:52;2.95;;;2.65;;
16478;SDS011;8350;52.316;10.530;2023-06-14T06:01:19;2.90;;;2.70;;
16478;SDS011;8350;52.316;10.530;2023-06-14T06:03:47;3.60;;;2.75;;
16478;SDS011;8350;52.316;10.530;2023-06-14T06:06:13;4.85;;;2.63;;
16478;SDS011;8350;52.316;10.530;2023-06-14T06:08:41;3.17;;;2.92;;
16478;SDS011;8350;52.316;10.530;2023-06-14T06:11:08;3.33;;;2.80;;
16478;SDS011;8350;52.316;10.530;2023-06-14T06:13:35;2.92;;;2.65;;
16478;SDS011;8350;52.316;10.530;2023-06-14T06:16:05;2.78;;;2.58;;
16478;SDS011;8350;52.316;10.530;2023-06-14T06:18:32;8.15;;;3.05;;
16478;SDS011;8350;52.316;10.530;2023-06-14T06:20:59;3.05;;;2.75;;
16478;SDS011;8350;52.316;10.530;2023-06-14T06:23:28;3.28;;;2.50;;
16478;SDS011;8350;52.316;10.530;2023-06-14T06:25:54;3.25;;;2.88;;
16478;SDS011;8350;52.316;10.530;2023-06-14T06:28:21;4.00;;;2.85;;
16478;SDS011;8350;52.316;10.530;2023-06-14T06:30:48;4.30;;;2.95;;
16478;SDS011;8350;52.316;10.530;2023-06-14T06:33:17;2.95;;;2.65;;
16478;SDS011;8350;52.316;10.530;2023-06-14T06:35:44;3.30;;;2.70;;
16478;SDS011;8350;52.316;10.530;2023-06-14T06:38:11;3.88;;;2.55;;
16478;SDS011;8350;52.316;10.530;2023-06-14T06:40:37;3.45;;;3.03;;
16478;SDS011;8350;52.316;10.530;2023-06-14T06:43:04;3.08;;;2.78;;
16478;SDS011;8350;52.316;10.530;2023-06-14T06:45:34;3.65;;;3.22;;
16478;SDS011;8350;52.316;10.530;2023-06-14T06:48:00;4.03;;;2.83;;
16478;SDS011;8350;52.316;10.530;2023-06-14T06:50:28;3.40;;;3.10;;
16478;SDS011;8350;52.316;10.530;2023-06-14T06:52:55;3.08;;;2.88;;
16478;SDS011;8350;52.316;10.530;2023-06-14T06:55:22;4.38;;;3.15;;
16478;SDS011;8350;52.316;10.530;2023-06-14T06:57:49;5.10;;;3.00;;
16478;SDS011;8350;52.316;10.530;2023-06-14T07:00:19;3.90;;;2.97;;
16478;SDS011;8350;52.316;10.530;2023-06-14T07:02:46;3.10;;;2.70;;
16478;SDS011;8350;52.316;10.530;2023-06-14T07:05:13;4.03;;;3.00;;
16478;SDS011;8350;52.316;10.530;2023-06-14T07:07:41;3.45;;;2.70;;
16478;SDS011;8350;52.316;10.530;2023-06-14T07:10:08;3.20;;;2.85;;
16478;SDS011;8350;52.316;10.530;2023-06-14T07:12:35;2.65;;;2.42;;
16478;SDS011;8350;52.316;10.530;2023-06-14T07:15:04;2.58;;;2.38;;
16478;SDS011;8350;52.316;10.530;2023-06-14T07:17:32;2.75;;;1.92;;
16478;SDS011;8350;52.316;10.530;2023-06-14T07:20:00;1.92;;;1.83;;
16478;SDS011;8350;52.316;10.530;2023-06-14T07:22:37;2.30;;;2.10;;
16478;SDS011;8350;52.316;10.530;2023-06-14T07:25:08;2.42;;;2.10;;
16478;SDS011;8350;52.316;10.530;2023-06-14T07:27:38;2.28;;;2.08;;
16478;SDS011;8350;52.316;10.530;2023-06-14T07:30:06;2.50;;;2.30;;
16478;SDS011;8350;52.316;10.530;2023-06-14T07:32:34;2.72;;;2.50;;
16478;SDS011;8350;52.316;10.530;2023-06-14T07:35:02;2.90;;;2.05;;
16478;SDS011;8350;52.316;10.530;2023-06-14T07:37:29;2.10;;;1.90;;
16478;SDS011;8350;52.316;10.530;2023-06-14T07:39:56;2.00;;;1.90;;
16478;SDS011;8350;52.316;10.530;2023-06-14T07:42:24;2.10;;;1.90;;
16478;SDS011;8350;52.316;10.530;2023-06-14T07:44:51;2.30;;;2.10;;
16478;SDS011;8350;52.316;10.530;2023-06-14T07:47:18;2.80;;;2.22;;
16478;SDS011;8350;52.316;10.530;2023-06-14T07:49:45;1.83;;;1.73;;
16478;SDS011;8350;52.316;10.530;2023-06-14T07:52:12;2.20;;;2.00;;
16478;SDS011;8350;52.316;10.530;2023-06-14T07:54:42;3.05;;;2.00;;
16478;SDS011;8350;52.316;10.530;2023-06-14T07:57:08;2.70;;;1.95;;
16478;SDS011;8350;52.316;10.530;2023-06-14T07:59:37;3.03;;;2.10;;
16478;SDS011;8350;52.316;10.530;2023-06-14T08:02:04;2.13;;;1.85;;
16478;SDS011;8350;52.316;10.530;2023-06-14T08:04:31;2.13;;;1.95;;
16478;SDS011;8350;52.316;10.530;2023-06-14T08:06:58;1.98;;;1.88;;
16478;SDS011;8350;52.316;10.530;2023-06-14T08:09:25;4.95;;;1.85;;
16478;SDS011;8350;52.316;10.530;2023-06-14T08:11:53;2.13;;;1.83;;
16478;SDS011;8350;52.316;10.530;2023-06-14T08:14:20;2.08;;;1.98;;
16478;SDS011;8350;52.316;10.530;2023-06-14T08:16:48;2.33;;;1.65;;
16478;SDS011;8350;52.316;10.530;2023-06-14T08:19:18;2.03;;;1.83;;
16478;SDS011;8350;52.316;10.530;2023-06-14T08:21:45;2.80;;;2.20;;
16478;SDS011;8350;52.316;10.530;2023-06-14T08:24:12;2.38;;;1.98;;
16478;SDS011;8350;52.316;10.530;2023-06-14T08:26:39;3.25;;;2.00;;
16478;SDS011;8350;52.316;10.530;2023-06-14T08:29:07;2.42;;;1.60;;
16478;SDS011;8350;52.316;10.530;2023-06-14T08:31:33;3.05;;;1.70;;
16478;SDS011;8350;52.316;10.530;2023-06-14T08:34:02;2.25;;;1.77;;
16478;SDS011;8350;52.316;10.530;2023-06-14T08:36:29;1.70;;;1.58;;
16478;SDS011;8350;52.316;10.530;2023-06-14T08:38:56;3.55;;;2.10;;
16478;SDS011;8350;52.316;10.530;2023-06-14T08:41:23;2.10;;;1.83;;
16478;SDS011;8350;52.316;10.530;2023-06-14T08:43:52;4.00;;;2.08;;
16478;SDS011;8350;52.316;10.530;2023-06-14T08:46:19;1.85;;;1.70;;
16478;SDS011;8350;52.316;10.530;2023-06-14T08:48:47;2.45;;;1.98;;
16478;SDS011;8350;52.316;10.530;2023-06-14T08:51:18;3.63;;;1.77;;
16478;SDS011;8350;52.316;10.530;2023-06-14T08:53:46;2.30;;;1.90;;
16478;SDS011;8350;52.316;10.530;2023-06-14T08:56:18;4.93;;;2.35;;
16478;SDS011;8350;52.316;10.530;2023-06-14T08:58:47;2.15;;;1.85;;
16478;SDS011;8350;52.316;10.530;2023-06-14T09:01:15;2.97;;;2.20;;
16478;SDS011;8350;52.316;10.530;2023-06-14T09:03:42;2.60;;;2.35;;
16478;SDS011;8350;52.316;10.530;2023-06-14T09:06:09;2.45;;;2.25;;
16478;SDS011;8350;52.316;10.530;2023-06-14T09:08:40;3.20;;;1.88;;
16478;SDS011;8350;52.316;10.530;2023-06-14T09:11:10;2.83;;;2.13;;
16478;SDS011;8350;52.316;10.530;2023-06-14T09:13:38;1.80;;;1.70;;
16478;SDS011;8350;52.316;10.530;2023-06-14T09:16:05;2.30;;;2.00;;
16478;SDS011;8350;52.316;10.530;2023-06-14T09:18:35;2.75;;;2.10;;
16478;SDS011;8350;52.316;10.530;2023-06-14T09:21:03;3.25;;;1.95;;
16478;SDS011;8350;52.316;10.530;2023-06-14T09:23:33;3.38;;;2.20;;
16478;SDS011;8350;52.316;10.530;2023-06-14T09:26:07;3.10;;;1.95;;
16478;SDS011;8350;52.316;10.530;2023-06-14T09:28:35;3.40;;;2.20;;
16478;SDS011;8350;52.316;10.530;2023-06-14T09:31:02;2.30;;;2.10;;
16478;SDS011;8350;52.316;10.530;2023-06-14T09:33:31;2.33;;;2.08;;
16478;SDS011;8350;52.316;10.530;2023-06-14T09:35:58;3.88;;;2.00;;
16478;SDS011;8350;52.316;10.530;2023-06-14T09:38:25;2.20;;;2.00;;
16478;SDS011;8350;52.316;10.530;2023-06-14T09:40:56;2.30;;;2.10;;
16478;SDS011;8350;52.316;10.530;2023-06-14T09:43:25;2.35;;;1.92;;
16478;SDS011;8350;52.316;10.530;2023-06-14T09:45:54;2.30;;;2.10;;
16478;SDS011;8350;52.316;10.530;2023-06-14T09:48:21;3.00;;;2.10;;
16478;SDS011;8350;52.316;10.530;2023-06-14T09:50:49;3.72;;;2.55;;
16478;SDS011;8350;52.316;10.530;2023-06-14T09:53:16;2.83;;;1.95;;
16478;SDS011;8350;52.316;10.530;2023-06-14T09:55:49;2.60;;;2.40;;
16478;SDS011;8350;52.316;10.530;2023-06-14T09:58:20;1.90;;;1.80;;
16478;SDS011;8350;52.316;10.530;2023-06-14T10:00:50;2.75;;;2.00;;
16478;SDS011;8350;52.316;10.530;2023-06-14T10:03:20;2.67;;;1.92;;
16478;SDS011;8350;52.316;10.530;2023-06-14T10:06:08;3.35;;;1.80;;
16478;SDS011;8350;52.316;10.530;2023-06-14T10:08:35;3.72;;;2.03;;
16478;SDS011;8350;52.316;10.530;2023-06-14T10:11:03;2.78;;;2.35;;
16478;SDS011;8350;52.316;10.530;2023-06-14T10:13:31;2.10;;;1.90;;
16478;SDS011;8350;52.316;10.530;2023-06-14T10:16:03;3.53;;;2.20;;
16478;SDS011;8350;52.316;10.530;2023-06-14T10:18:40;2.08;;;1.90;;
16478;SDS011;8350;52.316;10.530;2023-06-14T10:21:13;2.50;;;1.92;;
16478;SDS011;8350;52.316;10.530;2023-06-14T10:23:48;3.83;;;2.22;;
16478;SDS011;8350;52.316;10.530;2023-06-14T10:26:17;2.72;;;2.13;;
16478;SDS011;8350;52.316;10.530;2023-06-14T10:29:01;4.05;;;2.33;;
16478;SDS011;8350;52.316;10.530;2023-06-14T10:31:45;4.32;;;2.88;;
16478;SDS011;8350;52.316;10.530;2023-06-14T10:34:20;4.78;;;2.67;;
16478;SDS011;8350;52.316;10.530;2023-06-14T10:36:59;5.95;;;3.40;;
16478;SDS011;8350;52.316;10.530;2023-06-14T10:39:28;6.32;;;2.90;;
16478;SDS011;8350;52.316;10.530;2023-06-14T10:41:56;3.25;;;2.70;;
16478;SDS011;8350;52.316;10.530;2023-06-14T10:44:39;3.05;;;2.40;;
16478;SDS011;8350;52.316;10.530;2023-06-14T10:47:19;3.55;;;2.45;;
16478;SDS011;8350;52.316;10.530;2023-06-14T10:49:50;4.90;;;3.13;;
16478;SDS011;8350;52.316;10.530;2023-06-14T10:52:21;2.55;;;2.35;;
16478;SDS011;8350;52.316;10.530;2023-06-14T10:54:59;3.22;;;2.58;;
16478;SDS011;8350;52.316;10.530;2023-06-14T10:57:31;2.88;;;2.65;;
16478;SDS011;8350;52.316;10.530;2023-06-14T10:59:59;3.13;;;2.88;;
16478;SDS011;8350;52.316;10.530;2023-06-14T11:05:51;5.20;;;3.17;;
16478;SDS011;8350;52.316;10.530;2023-06-14T11:11:33;3.63;;;2.85;;
16478;SDS011;8350;52.316;10.530;2023-06-14T11:14:00;5.25;;;2.90;;
16478;SDS011;8350;52.316;10.530;2023-06-14T11:16:29;3.17;;;2.97;;
16478;SDS011;8350;52.316;10.530;2023-06-14T11:18:58;3.58;;;2.70;;
16478;SDS011;8350;52.316;10.530;2023-06-14T11:21:28;4.63;;;3.30;;
16478;SDS011;8350;52.316;10.530;2023-06-14T11:23:58;3.20;;;2.90;;
16478;SDS011;8350;52.316;10.530;2023-06-14T11:26:25;7.90;;;3.20;;
16478;SDS011;8350;52.316;10.530;2023-06-14T11:28:54;5.55;;;3.47;;
16478;SDS011;8350;52.316;10.530;2023-06-14T11:31:23;4.30;;;2.90;;
16478;SDS011;8350;52.316;10.530;2023-06-14T11:33:50;7.45;;;3.13;;
16478;SDS011;8350;52.316;10.530;2023-06-14T11:36:17;3.50;;;3.17;;
16478;SDS011;8350;52.316;10.530;2023-06-14T11:38:46;3.72;;;3.10;;
16478;SDS011;8350;52.316;10.530;2023-06-14T11:41:13;4.47;;;3.10;;
16478;SDS011;8350;52.316;10.530;2023-06-14T11:43:40;4.55;;;3.22;;
16478;SDS011;8350;52.316;10.530;2023-06-14T11:46:12;2.88;;;2.67;;
16478;SDS011;8350;52.316;10.530;2023-06-14T11:48:42;5.45;;;3.50;;
16478;SDS011;8350;52.316;10.530;2023-06-14T11:51:10;4.38;;;3.22;;
16478;SDS011;8350;52.316;10.530;2023-06-14T11:53:39;6.30;;;2.88;;
16478;SDS011;8350;52.316;10.530;2023-06-14T11:56:07;4.18;;;3.00;;
16478;SDS011;8350;52.316;10.530;2023-06-14T11:58:35;4.78;;;2.88;;
16478;SDS011;8350;52.316;10.530;2023-06-14T12:01:03;4.13;;;2.83;;
16478;SDS011;8350;52.316;10.530;2023-06-14T12:03:30;3.25;;;2.95;;
16478;SDS011;8350;52.316;10.530;2023-06-14T12:06:04;5.88;;;3.10;;
16478;SDS011;8350;52.316;10.530;2023-06-14T12:08:32;3.75;;;2.80;;
16478;SDS011;8350;52.316;10.530;2023-06-14T12:11:03;3.28;;;2.97;;
16478;SDS011;8350;52.316;10.530;2023-06-14T12:13:32;3.72;;;2.97;;
16478;SDS011;8350;52.316;10.530;2023-06-14T12:15:59;4.53;;;3.00;;
16478;SDS011;8350;52.316;10.530;2023-06-14T12:18:33;6.97;;;2.97;;
16478;SDS011;8350;52.316;10.530;2023-06-14T12:21:01;6.57;;;3.28;;
16478;SDS011;8350;52.316;10.530;2023-06-14T12:23:44;4.32;;;3.10;;
16478;SDS011;8350;52.316;10.530;2023-06-14T12:26:13;4.05;;;3.05;;
16478;SDS011;8350;52.316;10.530;2023-06-14T12:28:43;3.40;;;3.10;;
16478;SDS011;8350;52.316;10.530;2023-06-14T12:31:12;4.97;;;3.00;;
16478;SDS011;8350;52.316;10.530;2023-06-14T12:33:40;6.20;;;3.00;;
16478;SDS011;8350;52.316;10.530;2023-06-14T12:36:10;4.15;;;2.80;;
16478;SDS011;8350;52.316;10.530;2023-06-14T12:38:38;4.72;;;3.22;;
16478;SDS011;8350;52.316;10.530;2023-06-14T12:41:04;4.20;;;3.05;;
16478;SDS011;8350;52.316;10.530;2023-06-14T12:43:34;5.07;;;2.67;;
16478;SDS011;8350;52.316;10.530;2023-06-14T12:46:05;4.22;;;3.13;;
16478;SDS011;8350;52.316;10.530;2023-06-14T12:48:32;4.18;;;2.67;;
16478;SDS011;8350;52.316;10.530;2023-06-14T12:50:59;3.60;;;2.83;;
16478;SDS011;8350;52.316;10.530;2023-06-14T12:53:27;3.22;;;2.80;;
16478;SDS011;8350;52.316;10.530;2023-06-14T12:55:54;6.05;;;3.50;;
16478;SDS011;8350;52.316;10.530;2023-06-14T12:58:21;3.85;;;2.92;;
16478;SDS011;8350;52.316;10.530;2023-06-14T13:00:48;4.47;;;2.65;;
16478;SDS011;8350;52.316;10.530;2023-06-14T13:03:18;2.83;;;2.60;;
16478;SDS011;8350;52.316;10.530;2023-06-14T13:05:45;3.63;;;3.22;;
16478;SDS011;8350;52.316;10.530;2023-06-14T13:08:12;5.05;;;2.97;;
16478;SDS011;8350;52.316;10.530;2023-06-14T13:10:39;6.32;;;3.13;;
16478;SDS011;8350;52.316;10.530;2023-06-14T13:13:06;3.72;;;2.90;;
16478;SDS011;8350;52.316;10.530;2023-06-14T13:15:33;4.60;;;2.90;;
16478;SDS011;8350;52.316;10.530;2023-06-14T13:18:00;4.82;;;3.30;;
16478;SDS011;8350;52.316;10.530;2023-06-14T13:20:29;4.22;;;2.45;;
16478;SDS011;8350;52.316;10.530;2023-06-14T13:22:56;7.63;;;3.03;;
16478;SDS011;8350;52.316;10.530;2023-06-14T13:25:23;3.50;;;2.97;;
16478;SDS011;8350;52.316;10.530;2023-06-14T13:27:52;3.50;;;2.60;;
16478;SDS011;8350;52.316;10.530;2023-06-14T13:30:19;5.50;;;3.00;;
16478;SDS011;8350;52.316;10.530;2023-06-14T13:32:47;5.18;;;3.22;;
16478;SDS011;8350;52.316;10.530;2023-06-14T13:35:14;4.88;;;3.28;;
16478;SDS011;8350;52.316;10.530;2023-06-14T13:37:42;4.35;;;2.92;;
16478;SDS011;8350;52.316;10.530;2023-06-14T13:40:10;5.53;;;3.22;;
16478;SDS011;8350;52.316;10.530;2023-06-14T13:42:37;6.75;;;3.42;;
16478;SDS011;8350;52.316;10.530;2023-06-14T13:45:05;4.90;;;3.00;;
16478;SDS011;8350;52.316;10.530;2023-06-14T13:47:34;4.03;;;3.00;;
16478;SDS011;8350;52.316;10.530;2023-06-14T13:50:01;6.45;;;3.17;;
16478;SDS011;8350;52.316;10.530;2023-06-14T13:52:28;4.10;;;3.10;;
16478;SDS011;8350;52.316;10.530;2023-06-14T13:54:57;4.90;;;3.25;;
16478;SDS011;8350;52.316;10.530;2023-06-14T13:57:25;3.35;;;3.05;;
16478;SDS011;8350;52.316;10.530;2023-06-14T13:59:52;4.25;;;3.22;;
16478;SDS011;8350;52.316;10.530;2023-06-14T14:02:20;4.07;;;2.90;;
16478;SDS011;8350;52.316;10.530;2023-06-14T14:04:50;6.30;;;3.00;;
16478;SDS011;8350;52.316;10.530;2023-06-14T14:07:18;3.65;;;2.78;;
16478;SDS011;8350;52.316;10.530;2023-06-14T14:09:47;7.20;;;3.00;;
16478;SDS011;8350;52.316;10.530;2023-06-14T14:12:17;5.78;;;2.60;;
16478;SDS011;8350;52.316;10.530;2023-06-14T14:14:48;3.72;;;2.90;;
16478;SDS011;8350;52.316;10.530;2023-06-14T14:17:15;5.28;;;3.50;;
16478;SDS011;8350;52.316;10.530;2023-06-14T14:19:42;9.05;;;3.20;;
16478;SDS011;8350;52.316;10.530;2023-06-14T14:22:09;5.28;;;3.10;;
16478;SDS011;8350;52.316;10.530;2023-06-14T14:24:36;4.97;;;2.92;;
16478;SDS011;8350;52.316;10.530;2023-06-14T14:27:04;4.70;;;3.50;;
16478;SDS011;8350;52.316;10.530;2023-06-14T14:29:34;4.47;;;3.03;;
16478;SDS011;8350;52.316;10.530;2023-06-14T14:32:03;3.40;;;3.10;;
16478;SDS011;8350;52.316;10.530;2023-06-14T14:34:31;3.63;;;3.03;;
16478;SDS011;8350;52.316;10.530;2023-06-14T14:36:58;3.92;;;2.88;;
16478;SDS011;8350;52.316;10.530;2023-06-14T14:39:25;4.57;;;3.28;;
16478;SDS011;8350;52.316;10.530;2023-06-14T14:41:52;5.55;;;3.30;;
16478;SDS011;8350;52.316;10.530;2023-06-14T14:44:19;3.35;;;2.72;;
16478;SDS011;8350;52.316;10.530;2023-06-14T14:46:47;6.82;;;3.17;;
16478;SDS011;8350;52.316;10.530;2023-06-14T14:49:14;5.65;;;2.60;;
16478;SDS011;8350;52.316;10.530;2023-06-14T14:51:41;5.03;;;3.13;;
16478;SDS011;8350;52.316;10.530;2023-06-14T14:54:08;4.90;;;3.10;;
16478;SDS011;8350;52.316;10.530;2023-06-14T14:56:35;5.88;;;3.00;;
16478;SDS011;8350;52.316;10.530;2023-06-14T14:59:03;5.72;;;2.85;;
16478;SDS011;8350;52.316;10.530;2023-06-14T15:01:30;3.83;;;3.08;;